createdAt,value
2022-08-19T00:01:04.235Z,99518.84
2022-08-19T00:03:52.822Z,99516.88
2022-08-19T00:06:44.805Z,99523.09
2022-08-19T00:09:33.873Z,99524.53
2022-08-19T00:12:22.543Z,99529.59
2022-08-19T00:15:14.929Z,99533.59
2022-08-19T00:18:03.459Z,99527.00
2022-08-19T00:20:52.215Z,99523.81
2022-08-19T00:23:42.640Z,99526.16
2022-08-19T00:26:31.103Z,99539.81
2022-08-19T00:29:22.234Z,99549.25
2022-08-19T00:32:10.983Z,99546.34
2022-08-19T00:35:02.520Z,99554.59
2022-08-19T00:37:51.871Z,99561.09
2022-08-19T00:40:42.132Z,99558.22
2022-08-19T00:43:31.024Z,99572.63
2022-08-19T00:46:19.598Z,99567.13
2022-08-19T00:49:12.360Z,99563.88
2022-08-19T00:52:05.659Z,99563.22
2022-08-19T00:54:54.948Z,99557.03
2022-08-19T00:57:48.955Z,99553.78
2022-08-19T01:00:38.434Z,99548.91
2022-08-19T01:03:27.073Z,99558.00
2022-08-19T01:06:15.699Z,99546.09
2022-08-19T01:09:08.637Z,99555.56
2022-08-19T01:11:57.387Z,99544.81
2022-08-19T01:14:47.580Z,99549.06
2022-08-19T01:17:36.467Z,99555.47
2022-08-19T01:20:25.938Z,99560.25
2022-08-19T01:23:16.161Z,99557.00
2022-08-19T01:26:04.707Z,99561.78
2022-08-19T01:28:57.372Z,99566.22
2022-08-19T01:31:48.220Z,99581.72
2022-08-19T01:34:36.931Z,99573.25
2022-08-19T01:37:27.189Z,99566.47
2022-08-19T01:40:17.684Z,99575.00
2022-08-19T01:43:06.917Z,99571.13
2022-08-19T01:45:55.443Z,99566.03
2022-08-19T01:48:45.787Z,99561.72
2022-08-19T01:51:39.649Z,99557.28
2022-08-19T01:54:28.929Z,99561.03
2022-08-19T01:57:18.775Z,99569.16
2022-08-19T02:00:09.469Z,99569.84
2022-08-19T02:02:58.339Z,99580.66
2022-08-19T02:05:51.196Z,99573.09
2022-08-19T02:08:42.015Z,99575.22
2022-08-19T02:11:36.623Z,99560.66
2022-08-19T02:14:26.448Z,99540.25
2022-08-19T02:17:15.018Z,99530.88
2022-08-19T02:20:03.616Z,99520.84
2022-08-19T02:22:52.609Z,99534.88
2022-08-19T02:25:41.529Z,99540.31
2022-08-19T02:28:30.212Z,99564.66
2022-08-19T02:31:23.529Z,99577.56
2022-08-19T02:34:14.209Z,99575.78
2022-08-19T02:37:03.842Z,99567.84
2022-08-19T02:39:51.727Z,99571.09
2022-08-19T02:42:40.474Z,99559.69
2022-08-19T02:45:29.070Z,99550.91
2022-08-19T02:48:21.541Z,99551.41
2022-08-19T02:51:10.517Z,99549.09
2022-08-19T02:53:59.834Z,99559.34
2022-08-19T02:56:48.409Z,99560.63
2022-08-19T02:59:36.934Z,99567.13
2022-08-19T03:02:25.495Z,99573.53
2022-08-19T03:05:15.375Z,99580.63
2022-08-19T03:08:04.522Z,99583.06
2022-08-19T03:10:54.020Z,99579.25
2022-08-19T03:13:44.144Z,99573.94
2022-08-19T03:16:34.877Z,99565.22
2022-08-19T03:19:23.632Z,99562.91
2022-08-19T03:22:13.645Z,99560.84
2022-08-19T03:25:02.211Z,99562.47
2022-08-19T03:27:50.623Z,99564.59
2022-08-19T03:30:40.508Z,99571.38
2022-08-19T03:33:33.271Z,99576.53
2022-08-19T03:36:25.433Z,99580.06
2022-08-19T03:39:17.228Z,99571.19
2022-08-19T03:42:38.841Z,99573.28
2022-08-19T03:45:14.897Z,99579.63
2022-08-19T03:48:03.430Z,99584.19
2022-08-19T03:50:52.070Z,99586.03
2022-08-19T03:53:40.609Z,99581.06
2022-08-19T03:56:30.636Z,99583.03
2022-08-19T03:59:22.136Z,99595.44
2022-08-19T04:02:13.086Z,99597.06
2022-08-19T04:05:01.652Z,99595.59
2022-08-19T04:07:50.238Z,99593.41
2022-08-19T04:10:39.217Z,99590.22
2022-08-19T04:13:29.073Z,99592.00
2022-08-19T04:16:17.657Z,99580.69
2022-08-19T04:19:07.604Z,99584.22
2022-08-19T04:21:56.938Z,99581.41
2022-08-19T04:24:45.461Z,99570.03
2022-08-19T04:27:34.376Z,99573.97
2022-08-19T04:30:24.452Z,99575.09
2022-08-19T04:33:14.131Z,99583.16
2022-08-19T04:36:02.572Z,99592.34
2022-08-19T04:38:51.431Z,99586.06
2022-08-19T04:41:54.149Z,99582.97
2022-08-19T04:44:46.385Z,99576.28
2022-08-19T04:47:47.877Z,99594.88
2022-08-19T04:50:46.013Z,99596.66
2022-08-19T04:53:37.794Z,99599.56
2022-08-19T04:56:27.589Z,99603.44
2022-08-19T04:59:16.969Z,99602.63
2022-08-19T05:02:06.992Z,99592.91
2022-08-19T05:05:01.938Z,99589.00
2022-08-19T05:07:50.495Z,99586.56
2022-08-19T05:10:39.624Z,99583.66
2022-08-19T05:13:29.009Z,99585.59
2022-08-19T05:16:19.674Z,99596.69
2022-08-19T05:19:37.483Z,99597.25
2022-08-19T05:22:39.607Z,99613.09
2022-08-19T05:25:28.082Z,99631.19
2022-08-19T05:28:16.551Z,99631.28
2022-08-19T05:31:05.054Z,99627.53
2022-08-19T05:33:53.535Z,99628.94
2022-08-19T05:36:46.069Z,99639.69
2022-08-19T05:39:38.255Z,99642.97
2022-08-19T05:42:27.489Z,99654.84
2022-08-19T05:45:16.132Z,99658.09
2022-08-19T05:48:05.001Z,99668.38
2022-08-19T05:50:53.466Z,99677.59
2022-08-19T05:53:41.955Z,99685.66
2022-08-19T05:56:32.420Z,99687.28
2022-08-19T05:59:22.439Z,99692.16
2022-08-19T06:02:14.530Z,99692.72
2022-08-19T06:05:03.658Z,99703.03
2022-08-19T06:07:52.183Z,99706.50
2022-08-19T06:10:40.834Z,99709.44
2022-08-19T06:13:33.292Z,99710.47
2022-08-19T06:16:24.276Z,99733.41
2022-08-19T06:19:15.520Z,99748.22
2022-08-19T06:22:04.283Z,99748.22
2022-08-19T06:24:53.599Z,99755.25
2022-08-19T06:28:11.552Z,99762.25
2022-08-19T06:30:52.550Z,99763.38
2022-08-19T06:33:41.073Z,99763.38
2022-08-19T06:36:32.726Z,99763.38
2022-08-19T06:39:23.269Z,99777.38
2022-08-19T06:42:17.133Z,99768.28
2022-08-19T06:45:09.631Z,99770.72
2022-08-19T06:48:00.090Z,99774.25
2022-08-19T06:50:52.465Z,99771.53
2022-08-19T06:53:41.478Z,99780.19
2022-08-19T06:56:34.601Z,99778.56
2022-08-19T06:59:28.178Z,99792.81
2022-08-19T07:05:11.994Z,99803.31
2022-08-19T07:08:04.968Z,99794.19
2022-08-19T07:10:53.734Z,99799.56
2022-08-19T07:13:44.336Z,99788.59
2022-08-19T07:16:33.044Z,99782.94
2022-08-19T07:19:22.050Z,99781.31
2022-08-19T07:22:13.112Z,99771.94
2022-08-19T07:25:03.770Z,99779.19
2022-08-19T07:27:54.414Z,99789.50
2022-08-19T07:30:43.220Z,99802.94
2022-08-19T07:33:33.552Z,99805.63
2022-08-19T07:36:25.335Z,99813.44
2022-08-19T07:39:19.393Z,99814.25
2022-08-19T07:42:10.857Z,99814.25
2022-08-19T07:45:02.135Z,99815.91
2022-08-19T07:47:51.334Z,99822.91
2022-08-19T07:50:39.958Z,99819.97
2022-08-19T07:53:28.570Z,99814.94
2022-08-19T07:56:19.486Z,99808.16
2022-08-19T07:59:08.789Z,99814.94
2022-08-19T08:02:00.622Z,99801.94
2022-08-19T08:05:06.792Z,99808.97
2022-08-19T08:08:13.221Z,99819.84
2022-08-19T08:11:01.700Z,99823.59
2022-08-19T08:14:01.084Z,99825.22
2022-08-19T08:16:53.679Z,99824.63
2022-08-19T08:19:43.116Z,99818.22
2022-08-19T08:22:49.760Z,99825.22
2022-08-19T08:25:38.889Z,99833.03
2022-08-19T08:28:29.571Z,99832.25
2022-08-19T08:31:20.566Z,99833.88
2022-08-19T08:34:09.805Z,99830.13
2022-08-19T08:36:58.285Z,99832.81
2022-08-19T08:39:46.856Z,99835.50
2022-08-19T08:42:38.808Z,99840.88
2022-08-19T08:45:27.329Z,99850.34
2022-08-19T08:48:26.931Z,99852.78
2022-08-19T08:51:20.404Z,99852.78
2022-08-19T08:54:13.633Z,99854.66
2022-08-19T08:57:02.204Z,99849.84
2022-08-19T08:59:52.716Z,99850.66
2022-08-19T09:02:43.537Z,99856.03
2022-08-19T09:05:56.930Z,99850.66
2022-08-19T09:08:52.272Z,99855.56
2022-08-19T09:11:52.207Z,99858.25
2022-08-19T09:14:50.852Z,99860.69
2022-08-19T09:17:40.577Z,99860.47
2022-08-19T09:20:29.077Z,99861.53
2022-08-19T09:23:18.972Z,99863.94
2022-08-19T09:26:17.272Z,99854.00
2022-08-19T09:29:09.919Z,99844.31
2022-08-19T09:31:58.499Z,99842.19
2022-08-19T09:34:50.836Z,99830.94
2022-08-19T09:37:40.347Z,99821.22
2022-08-19T09:40:32.642Z,99819.38
2022-08-19T09:43:32.913Z,99828.81
2022-08-19T09:46:22.929Z,99823.41
2022-08-19T09:49:12.443Z,99816.41
2022-08-19T09:52:02.381Z,99818.88
2022-08-19T09:54:55.045Z,99823.41
2022-08-19T09:57:44.852Z,99830.47
2022-08-19T10:00:33.311Z,99818.88
2022-08-19T10:03:21.794Z,99822.38
2022-08-19T10:06:15.120Z,99834.19
2022-08-19T10:09:09.039Z,99837.94
2022-08-19T10:11:57.714Z,99839.56
2022-08-19T10:14:48.114Z,99831.50
2022-08-19T10:17:37.088Z,99825.06
2022-08-19T10:20:26.013Z,99832.09
2022-08-19T10:23:14.907Z,99828.91
2022-08-19T10:26:07.107Z,99833.22
2022-08-19T10:28:56.043Z,99843.16
2022-08-19T10:32:01.253Z,99848.81
2022-08-19T10:34:52.858Z,99859.63
2022-08-19T10:37:57.040Z,99860.69
2022-08-19T10:40:46.169Z,99856.94
2022-08-19T10:43:35.520Z,99852.94
2022-08-19T10:46:25.357Z,99855.41
2022-08-19T10:49:16.161Z,99854.34
2022-08-19T10:52:32.577Z,99851.66
2022-08-19T10:55:41.225Z,99851.97
2022-08-19T10:58:29.686Z,99868.44
2022-08-19T11:01:18.254Z,99867.06
2022-08-19T11:04:09.943Z,99866.81
2022-08-19T11:06:59.977Z,99869.50
2022-08-19T11:09:48.561Z,99877.09
2022-08-19T11:12:40.142Z,99880.03
2022-08-19T11:15:29.699Z,99879.22
2022-08-19T11:18:18.506Z,99886.22
2022-08-19T11:21:15.340Z,99886.22
2022-08-19T11:24:07.550Z,99895.13
2022-08-19T11:26:59.903Z,99897.00
2022-08-19T11:29:48.391Z,99895.94
2022-08-19T11:32:36.871Z,99893.72
2022-08-19T11:35:25.891Z,99897.00
2022-08-19T11:38:15.596Z,99897.56
2022-08-19T11:41:08.211Z,99899.78
2022-08-19T11:43:57.491Z,99901.09
2022-08-19T11:46:47.456Z,99894.88
2022-08-19T11:49:37.256Z,99884.09
2022-08-19T11:52:26.410Z,99887.38
2022-08-19T11:55:15.412Z,99882.78
2022-08-19T11:58:07.341Z,99892.78
2022-08-19T12:01:08.880Z,99903.53
2022-08-19T12:03:59.061Z,99907.28
2022-08-19T12:06:47.591Z,99909.16
2022-08-19T12:09:36.319Z,99912.09
2022-08-19T12:12:30.651Z,99907.75
2022-08-19T12:15:20.401Z,99906.47
2022-08-19T12:18:09.484Z,99914.31
2022-08-19T12:20:57.988Z,99921.78
2022-08-19T12:23:47.377Z,99916.41
2022-08-19T12:26:52.381Z,99930.47
2022-08-19T12:29:42.495Z,99924.47
2022-08-19T12:32:32.461Z,99924.25
2022-08-19T12:35:22.156Z,99921.78
2022-08-19T12:38:10.831Z,99925.09
2022-08-19T12:41:00.405Z,99923.44
2022-08-19T12:43:50.127Z,99928.84
2022-08-19T12:46:38.597Z,99931.25
2022-08-19T12:49:52.814Z,99930.94
2022-08-19T12:52:43.470Z,99938.78
2022-08-19T12:55:32.781Z,99942.53
2022-08-19T12:58:24.256Z,99936.31
2022-08-19T13:01:18.242Z,99927.19
2022-08-19T13:04:11.379Z,99923.44
2022-08-19T13:07:01.301Z,99923.44
2022-08-19T13:09:49.945Z,99922.97
2022-08-19T13:12:38.441Z,99925.88
2022-08-19T13:15:29.411Z,99925.09
2022-08-19T13:18:17.864Z,99928.34
2022-08-19T13:21:07.124Z,99924.00
2022-08-19T13:23:57.283Z,99917.56
2022-08-19T13:26:45.840Z,99927.78
2022-08-19T13:29:52.052Z,99922.63
2022-08-19T13:32:57.951Z,99920.50
2022-08-19T13:35:49.229Z,99910.38
2022-08-19T13:38:38.828Z,99918.78
2022-08-19T13:41:29.114Z,99924.84
2022-08-19T13:44:19.160Z,99921.38
2022-08-19T13:47:09.195Z,99927.31
2022-08-19T13:49:57.713Z,99925.28
2022-08-19T13:52:46.523Z,99920.53
2022-08-19T13:55:35.355Z,99928.47
2022-08-19T13:58:25.174Z,99923.09
2022-08-19T14:01:13.671Z,99919.34
2022-08-19T14:04:02.254Z,99917.72
2022-08-19T14:06:50.726Z,99917.00
2022-08-19T14:09:39.230Z,99920.91
2022-08-19T14:12:28.226Z,99922.44
2022-08-19T14:15:19.071Z,99933.56
2022-08-19T14:18:07.737Z,99929.72
2022-08-19T14:20:57.200Z,99929.03
2022-08-19T14:23:47.514Z,99927.88
2022-08-19T14:26:36.026Z,99930.91
2022-08-19T14:29:24.828Z,99926.09
2022-08-19T14:32:16.744Z,99927.84
2022-08-19T14:35:06.421Z,99934.88
2022-08-19T14:37:56.728Z,99935.56
2022-08-19T14:40:45.611Z,99940.84
2022-08-19T14:43:34.280Z,99945.16
2022-08-19T14:46:25.163Z,99945.78
2022-08-19T14:49:15.002Z,99938.63
2022-08-19T14:52:04.559Z,99939.09
2022-08-19T14:54:53.152Z,99945.66
2022-08-19T14:57:43.369Z,99944.25
2022-08-19T15:00:31.849Z,99946.09
2022-08-19T15:03:20.358Z,99942.25
2022-08-19T15:06:12.838Z,99938.09
2022-08-19T15:09:04.527Z,99929.09
2022-08-19T15:11:53.123Z,99923.34
2022-08-19T15:14:43.338Z,99920.97
2022-08-19T15:17:45.194Z,99931.28
2022-08-19T15:20:34.565Z,99935.34
2022-08-19T15:23:24.616Z,99926.56
2022-08-19T15:26:16.135Z,99937.88
2022-08-19T15:29:05.254Z,99938.50
2022-08-19T15:31:56.134Z,99935.88
2022-08-19T15:34:46.597Z,99940.44
2022-08-19T15:37:37.610Z,99940.78
2022-08-19T15:40:28.844Z,99940.31
2022-08-19T15:43:18.236Z,99933.31
2022-08-19T15:46:07.117Z,99922.56
2022-08-19T15:48:59.905Z,99921.25
2022-08-19T15:51:51.924Z,99919.13
2022-08-19T15:54:40.987Z,99913.75
2022-08-19T15:57:50.457Z,99904.63
2022-08-19T16:00:57.086Z,99901.69
2022-08-19T16:04:03.216Z,99908.22
2022-08-19T16:06:54.596Z,99899.59
2022-08-19T16:09:43.164Z,99901.56
2022-08-19T16:12:33.101Z,99900.72
2022-08-19T16:15:21.976Z,99912.53
2022-08-19T16:18:10.570Z,99921.78
2022-08-19T16:20:59.085Z,99925.34
2022-08-19T16:23:48.030Z,99913.41
2022-08-19T16:26:36.665Z,99912.25
2022-08-19T16:29:33.733Z,99920.69
2022-08-19T16:32:23.784Z,99920.03
2022-08-19T16:35:12.611Z,99905.47
2022-08-19T16:38:01.297Z,99911.09
2022-08-19T16:40:54.293Z,99916.16
2022-08-19T16:43:43.435Z,99910.13
2022-08-19T16:46:37.226Z,99908.00
2022-08-19T16:49:53.709Z,99893.84
2022-08-19T16:52:36.443Z,99885.13
2022-08-19T16:55:25.305Z,99882.44
2022-08-19T16:58:13.851Z,99877.56
2022-08-19T17:01:04.387Z,99893.31
2022-08-19T17:03:54.956Z,99896.94
2022-08-19T17:06:44.929Z,99887.47
2022-08-19T17:09:33.461Z,99891.91
2022-08-19T17:12:23.087Z,99891.78
2022-08-19T17:15:19.237Z,99890.38
2022-08-19T17:18:09.698Z,99893.06
2022-08-19T17:21:00.057Z,99890.50
2022-08-19T17:23:48.722Z,99910.31
2022-08-19T17:26:38.023Z,99917.09
2022-08-19T17:29:26.534Z,99921.78
2022-08-19T17:32:15.359Z,99908.34
2022-08-19T17:35:04.770Z,99905.16
2022-08-19T17:37:55.049Z,99900.28
2022-08-19T17:40:43.971Z,99910.09
2022-08-19T17:43:35.433Z,99898.44
2022-08-19T17:46:26.622Z,99900.53
2022-08-19T17:49:15.667Z,99900.41
2022-08-19T17:52:10.082Z,99900.75
2022-08-19T17:55:00.128Z,99916.19
2022-08-19T17:57:48.652Z,99936.41
2022-08-19T18:00:37.147Z,99944.94
2022-08-19T18:03:43.144Z,99944.47
2022-08-19T18:06:31.754Z,99959.31
2022-08-19T18:09:20.971Z,99955.91
2022-08-19T18:12:16.993Z,99954.88
2022-08-19T18:15:07.128Z,99980.69
2022-08-19T18:17:56.354Z,99990.16
2022-08-19T18:20:45.819Z,100003.94
2022-08-19T18:23:44.097Z,100017.13
2022-08-19T18:26:34.914Z,100026.38
2022-08-19T18:29:24.956Z,100031.06
2022-08-19T18:32:13.840Z,100030.44
2022-08-19T18:35:03.114Z,100033.84
2022-08-19T18:37:51.709Z,100045.53
2022-08-19T18:40:57.978Z,100042.38
2022-08-19T18:44:04.175Z,100027.66
2022-08-19T18:47:12.032Z,100011.66
2022-08-19T18:50:07.724Z,100013.03
2022-08-19T18:52:56.252Z,100015.13
2022-08-19T18:55:49.481Z,100008.84
2022-08-19T18:58:39.610Z,100014.56
2022-08-19T19:01:30.835Z,100010.13
2022-08-19T19:04:24.233Z,100010.81
2022-08-19T19:07:14.201Z,100015.28
2022-08-19T19:10:02.852Z,100014.91
2022-08-19T19:12:51.455Z,100006.13
2022-08-19T19:15:43.428Z,100007.06
2022-08-19T19:18:34.354Z,100010.72
2022-08-19T19:21:26.447Z,100004.16
2022-08-19T19:24:16.741Z,100011.03
2022-08-19T19:27:08.372Z,99999.59
2022-08-19T19:29:57.436Z,99995.88
2022-08-19T19:32:45.970Z,100010.59
2022-08-19T19:35:34.552Z,99997.03
2022-08-19T19:38:24.583Z,99992.09
2022-08-19T19:41:14.226Z,99996.16
2022-08-19T19:44:30.028Z,100003.41
2022-08-19T19:47:13.104Z,100013.31
2022-08-19T19:50:17.824Z,100018.69
2022-08-19T19:53:06.415Z,100026.91
2022-08-19T19:55:58.847Z,100004.38
2022-08-19T19:58:50.402Z,99999.50
2022-08-19T20:01:39.534Z,99985.81
2022-08-19T20:04:32.868Z,99984.91
2022-08-19T20:07:42.640Z,99993.44
2022-08-19T20:10:31.867Z,100002.03
2022-08-19T20:13:22.188Z,100012.75
2022-08-19T20:16:10.836Z,100001.44
2022-08-19T20:19:00.595Z,100007.50
2022-08-19T20:21:51.496Z,100012.03
2022-08-19T20:24:42.384Z,100042.28
2022-08-19T20:27:37.157Z,100052.91
2022-08-19T20:30:32.113Z,100043.75
2022-08-19T20:33:21.782Z,100030.44
2022-08-19T20:36:10.455Z,100020.88
2022-08-19T20:38:59.590Z,100026.03
2022-08-19T20:41:48.824Z,100027.28
2022-08-19T20:44:37.985Z,100033.72
2022-08-19T20:47:29.596Z,100035.34
2022-08-19T20:50:18.778Z,100031.03
2022-08-19T20:53:16.241Z,100042.47
2022-08-19T20:56:05.196Z,100041.56
2022-08-19T20:58:57.949Z,100038.88
2022-08-19T21:01:48.869Z,100035.94
2022-08-19T21:04:38.933Z,100030.44
2022-08-19T21:07:39.155Z,100025.28
2022-08-19T21:10:28.194Z,100011.50
2022-08-19T21:13:17.668Z,100016.97
2022-08-19T21:16:09.502Z,100015.44
2022-08-19T21:18:58.026Z,100013.69
2022-08-19T21:21:47.909Z,100012.56
2022-08-19T21:24:36.646Z,100018.03
2022-08-19T21:27:25.132Z,100020.16
2022-08-19T21:30:14.757Z,100027.69
2022-08-19T21:33:04.454Z,100023.28
2022-08-19T21:35:53.533Z,100035.97
2022-08-19T21:38:44.032Z,100024.34
2022-08-19T21:41:32.588Z,100024.78
2022-08-19T21:44:21.013Z,100034.34
2022-08-19T21:47:09.542Z,100029.72
2022-08-19T21:49:59.066Z,100021.09
2022-08-19T21:52:47.841Z,100028.78
2022-08-19T21:55:37.619Z,100028.34
2022-08-19T21:58:28.338Z,100019.25
2022-08-19T22:01:19.208Z,100013.88
2022-08-19T22:04:07.699Z,100007.84
2022-08-19T22:06:56.191Z,100007.69
2022-08-19T22:09:46.464Z,100007.69
2022-08-19T22:12:39.265Z,100001.44
2022-08-19T22:15:41.053Z,100002.84
2022-08-19T22:18:29.527Z,100017.44
2022-08-19T22:21:22.621Z,100031.00
2022-08-19T22:24:28.547Z,100035.94
2022-08-19T22:27:17.007Z,100033.56
2022-08-19T22:30:10.142Z,100033.81
2022-08-19T22:33:00.824Z,100029.97
2022-08-19T22:35:49.611Z,100023.66
2022-08-19T22:38:38.432Z,100011.88
2022-08-19T22:41:27.581Z,100016.41
2022-08-19T22:44:16.051Z,100032.09
2022-08-19T22:47:06.373Z,100033.25
2022-08-19T22:49:54.995Z,100033.34
2022-08-19T22:52:51.740Z,100038.63
2022-08-19T22:55:40.992Z,100042.34
2022-08-19T22:58:29.789Z,100047.38
2022-08-19T23:01:27.368Z,100044.22
2022-08-19T23:04:19.985Z,100041.53
2022-08-19T23:07:09.335Z,100029.44
2022-08-19T23:09:58.003Z,100029.28
2022-08-19T23:12:49.332Z,100022.94
2022-08-19T23:15:38.348Z,100021.41
2022-08-19T23:18:26.968Z,100028.69
2022-08-19T23:21:16.828Z,100023.63
2022-08-19T23:24:06.562Z,100017.22
2022-08-19T23:27:13.059Z,100019.31
2022-08-19T23:30:18.943Z,100012.41
2022-08-19T23:33:14.756Z,100005.31
2022-08-19T23:36:07.562Z,100007.84
2022-08-19T23:38:57.900Z,100009.03
2022-08-19T23:41:46.430Z,100008.47
2022-08-19T23:44:34.966Z,100007.63
2022-08-19T23:47:41.359Z,100010.09
2022-08-19T23:50:29.877Z,100012.44
2022-08-19T23:53:18.425Z,100009.28
2022-08-19T23:56:09.457Z,100007.53
2022-08-19T23:58:59.279Z,100007.91
